Time;durP1;ratioP1;P1;durP2;ratioP2;P2;SDS_P1;SDS_P2;PMS_P1;PMS_P2;Temp;Humidity;BMP_temperature;BMP_pressure;BME280_temperature;BME280_humidity;BME280_pressure;Samples;Min_cycle;Max_cycle;Signal;HPM_P1;HPM_P2
2023/03/06 00:00:22;;;;;;;21.53;7.83;;;;;;;-145.69;100.00;52592.91;5113543;28;20197;-81
2023/03/06 00:02:49;;;;;;;21.73;8.60;;;;;;;-145.69;100.00;52598.84;5113643;28;20413;-81
2023/03/06 00:05:16;;;;;;;17.67;7.60;;;;;;;-145.69;100.00;52594.91;5113736;28;20201;-81
2023/03/06 00:07:43;;;;;;;18.53;7.23;;;;;;;-145.69;100.00;52575.09;5112924;28;20196;-81
2023/03/06 00:10:13;;;;;;;24.00;8.67;;;;;;;-145.69;100.00;52567.16;5113565;28;20559;-82
2023/03/06 00:12:40;;;;;;;20.10;7.43;;;;;;;-145.69;100.00;52590.94;5113248;28;20221;-81
2023/03/06 00:15:09;;;;;;;19.67;8.00;;;;;;;-145.69;100.00;52559.25;5114029;28;20211;-80
2023/03/06 00:17:36;;;;;;;20.17;7.70;;;;;;;-145.69;100.00;52565.19;5113249;28;20201;-81
2023/03/06 00:20:02;;;;;;;18.67;7.77;;;;;;;-145.69;100.00;52577.06;5112988;28;20204;-82
2023/03/06 00:22:29;;;;;;;21.37;7.83;;;;;;;-145.69;100.00;52583.00;5113553;28;20201;-82
2023/03/06 00:24:55;;;;;;;20.13;7.20;;;;;;;-145.69;100.00;52622.63;5112990;28;20204;-81
2023/03/06 00:27:24;;;;;;;19.37;6.93;;;;;;;-145.69;100.00;52583.00;5113295;28;20207;-81
2023/03/06 00:29:55;;;;;;;17.37;7.43;;;;;;;-145.69;100.00;52579.06;5113282;28;20201;-82
2023/03/06 00:32:23;;;;;;;20.63;8.23;;;;;;;-145.69;100.00;52598.84;5095835;28;20722;-81
2023/03/06 00:34:50;;;;;;;19.77;7.93;;;;;;;-145.69;100.00;52590.94;5114075;28;20204;-81
2023/03/06 00:37:17;;;;;;;19.43;7.87;;;;;;;-145.69;100.00;52590.94;5116482;28;20193;-80
2023/03/06 00:39:44;;;;;;;17.70;7.37;;;;;;;-145.69;100.00;52628.56;5116584;28;20190;-80
2023/03/06 00:42:11;;;;;;;23.53;7.80;;;;;;;-145.69;100.00;52569.16;5116328;28;20249;-79
2023/03/06 00:44:38;;;;;;;17.33;7.13;;;;;;;-145.69;100.00;52614.72;5117069;28;20197;-81
2023/03/06 00:47:05;;;;;;;18.57;7.80;;;;;;;-145.69;100.00;52622.63;5116739;28;20198;-80
2023/03/06 00:49:33;;;;;;;18.43;7.13;;;;;;;-145.69;100.00;52575.09;5116652;28;20204;-81
2023/03/06 00:52:00;;;;;;;22.83;8.17;;;;;;;-145.69;100.00;52638.47;5116979;28;20207;-81
2023/03/06 00:54:26;;;;;;;17.90;7.77;;;;;;;-145.69;100.00;52596.88;5116276;28;20201;-81
2023/03/06 00:56:53;;;;;;;21.60;7.67;;;;;;;-145.69;100.00;52612.72;5116392;28;20727;-82
2023/03/06 00:59:19;;;;;;;17.77;8.00;;;;;;;-145.69;100.00;52588.97;5116342;28;20197;-81
2023/03/06 01:01:46;;;;;;;21.33;7.43;;;;;;;-145.69;100.00;52579.06;5116397;28;20193;-81
2023/03/06 01:04:13;;;;;;;18.10;7.30;;;;;;;-145.69;100.00;52590.94;5116589;28;20651;-82
2023/03/06 01:06:41;;;;;;;18.70;7.30;;;;;;;-145.69;100.00;52579.06;5116782;28;20193;-82
2023/03/06 01:09:07;;;;;;;21.40;6.97;;;;;;;-145.69;100.00;52594.91;5117040;28;20201;-82
2023/03/06 01:11:34;;;;;;;23.17;8.80;;;;;;;-145.69;100.00;52583.00;5116722;28;20197;-81
2023/03/06 01:14:00;;;;;;;20.10;7.70;;;;;;;-145.69;100.00;52585.00;5116249;28;20221;-81
2023/03/06 01:16:27;;;;;;;18.20;7.67;;;;;;;-145.69;100.00;52571.13;5116307;28;20224;-81
2023/03/06 01:18:53;;;;;;;19.43;7.70;;;;;;;-145.69;100.00;52569.16;5115912;28;20603;-81
2023/03/06 01:21:22;;;;;;;23.63;8.27;;;;;;;-145.69;100.00;52590.94;5116098;28;20205;-81
2023/03/06 01:23:50;;;;;;;21.70;8.57;;;;;;;-145.69;100.00;52577.06;5115990;28;20221;-81
2023/03/06 01:26:17;;;;;;;21.67;8.50;;;;;;;-145.69;100.00;52573.13;5115855;28;20201;-81
2023/03/06 01:28:44;;;;;;;18.40;7.63;;;;;;;-145.69;100.00;52602.81;5115685;28;20691;-82
2023/03/06 01:31:11;;;;;;;17.13;6.87;;;;;;;-145.69;100.00;52577.06;5115663;28;20200;-81
2023/03/06 01:33:38;;;;;;;19.73;7.97;;;;;;;-145.69;100.00;52575.09;5115445;28;20217;-81
2023/03/06 01:36:06;;;;;;;21.97;8.30;;;;;;;-145.69;100.00;52622.63;5115544;28;20205;-81
2023/03/06 01:38:33;;;;;;;20.10;7.83;;;;;;;-145.69;100.00;52598.84;5115601;28;20219;-81
2023/03/06 01:41:02;;;;;;;20.57;8.17;;;;;;;-145.69;100.00;52579.06;5115480;28;20248;-81
2023/03/06 01:43:31;;;;;;;26.97;8.50;;;;;;;-145.69;100.00;52586.97;5114992;28;20205;-80
2023/03/06 01:46:31;;;;;;;17.77;7.33;;;;;;;-145.69;100.00;52592.91;5115522;28;20198;-81
2023/03/06 01:49:00;;;;;;;18.93;6.97;;;;;;;-145.69;100.00;52569.16;5115706;28;20208;-80
2023/03/06 01:51:30;;;;;;;17.97;7.13;;;;;;;-145.69;100.00;52598.84;5115052;28;20216;-81
2023/03/06 01:54:00;;;;;;;20.40;7.20;;;;;;;-145.69;100.00;52575.09;5114987;28;20265;-81
2023/03/06 01:56:28;;;;;;;21.97;7.97;;;;;;;-145.69;100.00;52598.84;5115461;28;20202;-82
2023/03/06 01:58:56;;;;;;;20.00;7.63;;;;;;;-145.69;100.00;52588.97;5096729;28;20220;-82
2023/03/06 02:01:23;;;;;;;20.10;7.63;;;;;;;-145.69;100.00;52559.25;5094856;28;20214;-81
2023/03/06 02:03:50;;;;;;;18.93;7.27;;;;;;;-145.69;100.00;52575.09;5100735;28;20200;-82
2023/03/06 02:06:20;;;;;;;21.77;8.13;;;;;;;-145.69;100.00;52586.97;5115184;28;20241;-81
2023/03/06 02:08:48;;;;;;;19.77;7.23;;;;;;;-145.69;100.00;52610.75;5115123;28;20668;-82
2023/03/06 02:11:17;;;;;;;24.23;8.37;;;;;;;-145.69;100.00;52555.28;5114918;28;20193;-81
2023/03/06 02:13:46;;;;;;;22.77;8.17;;;;;;;-145.69;100.00;52579.06;5114493;28;20224;-80
2023/03/06 02:16:13;;;;;;;23.00;7.80;;;;;;;-145.69;100.00;52571.13;5115262;28;20205;-81
2023/03/06 02:18:41;;;;;;;16.97;7.60;;;;;;;-145.69;100.00;52594.91;5114335;28;20687;-81
2023/03/06 02:21:10;;;;;;;23.40;7.50;;;;;;;-145.69;100.00;52585.00;5114953;28;20194;-81
2023/03/06 02:23:50;;;;;;;21.03;7.17;;;;;;;-145.69;100.00;52616.69;5114889;28;20202;-81
2023/03/06 02:26:19;;;;;;;18.60;7.50;;;;;;;-145.69;100.00;52594.91;5115034;28;20201;-81
2023/03/06 02:28:46;;;;;;;21.23;7.13;;;;;;;-145.69;100.00;52555.28;5114303;28;20201;-81
2023/03/06 02:31:21;;;;;;;16.40;6.80;;;;;;;-145.69;100.00;52588.97;5114377;28;20197;-80
2023/03/06 02:33:59;;;;;;;20.27;8.40;;;;;;;-145.69;100.00;52602.81;5114707;28;20225;-81
2023/03/06 02:36:26;;;;;;;19.23;7.40;;;;;;;-145.69;100.00;52588.97;5114465;28;20208;-81
2023/03/06 02:38:52;;;;;;;16.90;7.27;;;;;;;-145.69;100.00;52604.81;5114082;28;20197;-80
2023/03/06 02:41:20;;;;;;;17.70;7.10;;;;;;;-145.69;100.00;52592.91;5113890;28;20232;-81
2023/03/06 02:43:48;;;;;;;20.20;7.87;;;;;;;-145.69;100.00;52559.25;5114731;28;20205;-81
2023/03/06 02:46:15;;;;;;;17.67;7.23;;;;;;;-145.69;100.00;52590.94;5114424;28;20204;-81
2023/03/06 02:48:43;;;;;;;21.87;8.73;;;;;;;-145.69;100.00;52618.66;5113746;28;20197;-81
2023/03/06 02:51:09;;;;;;;22.50;9.20;;;;;;;-145.69;100.00;52600.84;5114255;28;20205;-81
2023/03/06 02:53:36;;;;;;;19.10;7.93;;;;;;;-145.69;100.00;52557.28;5113091;28;20221;-81
2023/03/06 02:56:02;;;;;;;15.73;6.87;;;;;;;-145.69;100.00;52606.78;5114060;28;20193;-81
2023/03/06 02:58:30;;;;;;;18.33;8.33;;;;;;;-145.69;100.00;52586.97;5114151;28;20200;-81
2023/03/06 03:00:56;;;;;;;22.27;8.00;;;;;;;-145.69;100.00;52594.91;5113529;28;20205;-81
2023/03/06 03:03:23;;;;;;;22.97;8.03;;;;;;;-145.69;100.00;52577.06;5113808;28;20201;-81
2023/03/06 03:05:49;;;;;;;21.50;8.83;;;;;;;-145.69;100.00;52590.94;5113890;28;20205;-81
2023/03/06 03:08:16;;;;;;;20.20;7.40;;;;;;;-145.69;100.00;52561.22;5113816;28;20556;-81
2023/03/06 03:10:43;;;;;;;22.53;7.67;;;;;;;-145.69;100.00;52571.13;5094600;28;20201;-81
2023/03/06 03:13:09;;;;;;;20.83;8.13;;;;;;;-145.69;100.00;52606.78;5113995;28;20221;-81
2023/03/06 03:15:37;;;;;;;24.70;8.00;;;;;;;-145.69;100.00;52575.09;5113562;28;20201;-80
2023/03/06 03:18:04;;;;;;;17.37;7.33;;;;;;;-145.69;100.00;52585.00;5113653;28;20675;-81
2023/03/06 03:20:30;;;;;;;19.80;7.63;;;;;;;-145.69;100.00;52583.00;5113739;28;20544;-81
2023/03/06 03:22:57;;;;;;;22.40;7.93;;;;;;;-145.69;100.00;52563.22;5113670;28;20209;-81
2023/03/06 03:25:25;;;;;;;17.93;7.63;;;;;;;-145.69;100.00;52559.25;5113860;28;20220;-80
2023/03/06 03:27:52;;;;;;;20.60;8.50;;;;;;;-145.69;100.00;52577.06;5113801;28;20205;-81
2023/03/06 03:30:19;;;;;;;22.03;7.90;;;;;;;-145.69;100.00;52547.38;5094802;28;20193;-81
2023/03/06 03:32:46;;;;;;;23.47;7.20;;;;;;;-145.69;100.00;52551.31;5113521;28;20208;-81
2023/03/06 03:35:13;;;;;;;18.20;7.27;;;;;;;-145.69;100.00;52588.97;5112921;28;20228;-80
2023/03/06 03:37:39;;;;;;;20.03;7.80;;;;;;;-145.69;100.00;52547.38;5113414;28;20208;-81
2023/03/06 03:40:09;;;;;;;19.97;7.40;;;;;;;-145.69;100.00;52586.97;5113313;28;20652;-81
2023/03/06 03:42:35;;;;;;;16.67;7.43;;;;;;;-145.69;100.00;52586.97;5113067;28;20229;-81
2023/03/06 03:45:02;;;;;;;17.37;6.80;;;;;;;-145.69;100.00;52592.91;5113045;28;20205;-81
2023/03/06 03:47:28;;;;;;;16.40;7.13;;;;;;;-145.69;100.00;52583.00;5113309;28;20694;-81
2023/03/06 03:49:56;;;;;;;17.90;6.83;;;;;;;-145.69;100.00;52579.06;5109694;28;20193;-81
2023/03/06 03:52:22;;;;;;;16.73;6.60;;;;;;;-145.69;100.00;52567.16;5112917;28;20198;-80
2023/03/06 03:54:49;;;;;;;15.07;6.97;;;;;;;-145.69;100.00;52590.94;5113335;28;20228;-81
2023/03/06 03:57:15;;;;;;;19.00;7.33;;;;;;;-145.69;100.00;52581.03;5113333;28;20209;-81
2023/03/06 03:59:42;;;;;;;18.40;7.53;;;;;;;-145.69;100.00;52620.66;5113114;28;20651;-81
2023/03/06 04:02:08;;;;;;;19.97;7.80;;;;;;;-145.69;100.00;52571.13;5112720;28;20193;-81
2023/03/06 04:04:35;;;;;;;21.17;7.70;;;;;;;-145.69;100.00;52622.63;5093124;28;20225;-82
2023/03/06 04:07:03;;;;;;;16.60;7.73;;;;;;;-145.69;100.00;52585.00;5097319;28;20197;-82
2023/03/06 04:09:30;;;;;;;19.47;7.53;;;;;;;-145.69;100.00;52594.91;5097344;28;20198;-81
2023/03/06 04:11:56;;;;;;;19.30;7.20;;;;;;;-145.69;100.00;52583.00;5096717;28;20200;-82
2023/03/06 04:14:23;;;;;;;19.30;7.27;;;;;;;-145.69;100.00;52590.94;5100597;28;20213;-82
2023/03/06 04:16:49;;;;;;;19.27;7.67;;;;;;;-145.69;100.00;52571.13;5117496;28;20208;-81
2023/03/06 04:19:16;;;;;;;19.27;7.73;;;;;;;-145.69;100.00;52575.09;5116846;28;20197;-82
2023/03/06 04:21:42;;;;;;;17.40;7.43;;;;;;;-145.69;100.00;52575.09;5117333;28;20299;-82
2023/03/06 04:24:10;;;;;;;18.17;7.00;;;;;;;-145.69;100.00;52622.63;5117529;28;20201;-81
2023/03/06 04:26:36;;;;;;;21.27;7.13;;;;;;;-145.69;100.00;52579.06;5116616;28;20185;-82
2023/03/06 04:29:03;;;;;;;15.90;6.57;;;;;;;-145.69;100.00;52585.00;5116894;28;20204;-82
2023/03/06 04:31:29;;;;;;;22.60;6.83;;;;;;;-145.69;100.00;52604.81;5116520;28;20647;-81
2023/03/06 04:33:56;;;;;;;19.57;7.87;;;;;;;-145.69;100.00;52604.81;5116323;28;20224;-81
2023/03/06 04:36:27;;;;;;;17.63;7.03;;;;;;;-145.69;100.00;52583.00;5116784;28;20204;-82
2023/03/06 04:38:53;;;;;;;19.37;7.53;;;;;;;-145.69;100.00;52575.09;5116658;28;20630;-81
2023/03/06 04:41:21;;;;;;;27.03;7.80;;;;;;;-145.69;100.00;52577.06;5116784;28;20433;-82
2023/03/06 04:43:48;;;;;;;23.07;7.97;;;;;;;-145.69;100.00;52583.00;5116700;28;20201;-81
2023/03/06 04:46:15;;;;;;;18.40;6.87;;;;;;;-145.69;100.00;52583.00;5115770;28;20198;-81
2023/03/06 04:48:42;;;;;;;20.17;7.53;;;;;;;-145.69;100.00;52561.22;5117055;28;20197;-81
2023/03/06 04:51:10;;;;;;;14.53;6.77;;;;;;;-145.69;100.00;52614.72;5116862;28;20197;-81
2023/03/06 04:53:36;;;;;;;15.50;6.70;;;;;;;-145.69;100.00;52583.00;5116485;28;20225;-82
2023/03/06 04:56:03;;;;;;;20.93;7.50;;;;;;;-145.69;100.00;52600.84;5116374;28;20201;-81
2023/03/06 04:58:31;;;;;;;16.63;7.60;;;;;;;-145.69;100.00;52583.00;5116439;28;20226;-82
2023/03/06 05:00:57;;;;;;;20.90;7.47;;;;;;;-145.69;100.00;52561.22;5116061;28;20193;-82
2023/03/06 05:03:24;;;;;;;21.17;7.67;;;;;;;-145.69;100.00;52598.84;5116090;28;20198;-81
2023/03/06 05:05:50;;;;;;;19.35;7.72;;;;;;;-145.69;100.00;52579.06;5115855;28;20932;-82
2023/03/06 05:08:17;;;;;;;20.80;8.60;;;;;;;-145.69;100.00;52588.97;5116603;28;20202;-82
2023/03/06 05:10:45;;;;;;;22.83;8.30;;;;;;;-145.69;100.00;52614.72;5116152;28;20225;-81
2023/03/06 05:13:12;;;;;;;19.53;7.70;;;;;;;-145.69;100.00;52622.63;5116151;28;20232;-82
2023/03/06 05:15:41;;;;;;;19.10;7.40;;;;;;;-145.69;100.00;52622.63;5116405;28;20229;-80
2023/03/06 05:18:08;;;;;;;17.93;7.23;;;;;;;-145.69;100.00;52664.22;5115462;28;20653;-81
2023/03/06 05:20:35;;;;;;;19.83;8.10;;;;;;;-145.69;100.00;52586.97;5115919;28;20189;-81
2023/03/06 05:23:01;;;;;;;28.47;9.23;;;;;;;-145.69;100.00;52610.75;5116296;28;20197;-81
2023/03/06 05:25:28;;;;;;;23.70;9.50;;;;;;;-145.69;100.00;52586.97;5115851;28;20279;-81
2023/03/06 05:27:54;;;;;;;21.03;8.73;;;;;;;-145.69;100.00;52575.09;5115089;28;20189;-81
2023/03/06 05:30:22;;;;;;;23.00;9.37;;;;;;;-145.69;100.00;52610.75;5115948;28;20201;-81
2023/03/06 05:32:50;;;;;;;22.63;9.67;;;;;;;-145.69;100.00;52594.91;5115804;28;20356;-81
2023/03/06 05:35:19;;;;;;;21.30;8.67;;;;;;;-145.69;100.00;52616.69;5116099;28;20225;-82
2023/03/06 05:37:46;;;;;;;20.77;8.70;;;;;;;-145.69;100.00;52590.94;5116547;28;20667;-82
2023/03/06 05:40:14;;;;;;;22.57;9.00;;;;;;;-145.69;100.00;52579.06;5115948;28;20555;-82
2023/03/06 05:42:40;;;;;;;25.03;9.17;;;;;;;-145.69;100.00;52583.00;5115555;28;20225;-82
2023/03/06 05:45:08;;;;;;;25.40;9.50;;;;;;;-145.69;100.00;52559.25;5115797;28;20591;-81
2023/03/06 05:47:34;;;;;;;23.53;9.47;;;;;;;-145.69;100.00;52594.91;5115670;28;20208;-81
2023/03/06 05:50:03;;;;;;;28.87;9.07;;;;;;;-145.69;100.00;52610.75;5114786;28;20197;-81
2023/03/06 05:52:29;;;;;;;21.27;8.97;;;;;;;-145.69;100.00;52634.50;5115402;28;20836;-81
2023/03/06 05:54:56;;;;;;;19.90;8.77;;;;;;;-145.69;100.00;52563.22;5111568;28;20225;-81
2023/03/06 05:57:24;;;;;;;24.90;9.60;;;;;;;-145.69;100.00;52590.94;5114656;28;20189;-80
2023/03/06 05:59:51;;;;;;;25.53;9.23;;;;;;;-145.69;100.00;52579.06;5115453;28;20197;-80
2023/03/06 06:02:18;;;;;;;20.80;9.07;;;;;;;-145.69;100.00;52586.97;5115233;28;20193;-80
2023/03/06 06:04:44;;;;;;;25.33;9.50;;;;;;;-145.69;100.00;52553.31;5115169;28;20647;-80
2023/03/06 06:07:15;;;;;;;20.93;8.53;;;;;;;-145.69;100.00;52583.00;5114658;28;20198;-81
2023/03/06 06:09:44;;;;;;;20.63;9.07;;;;;;;-145.69;100.00;52563.22;5115172;28;20205;-81
2023/03/06 06:12:11;;;;;;;21.47;9.53;;;;;;;-145.69;100.00;52600.84;5114945;28;20288;-81
2023/03/06 06:14:38;;;;;;;21.33;8.43;;;;;;;-145.69;100.00;52575.09;5114915;28;20485;-80
2023/03/06 06:17:04;;;;;;;22.30;8.73;;;;;;;-145.69;100.00;52586.97;5114661;28;20204;-81
2023/03/06 06:19:32;;;;;;;24.40;9.03;;;;;;;-145.69;100.00;52567.16;5114622;28;20206;-81
2023/03/06 06:22:01;;;;;;;25.93;9.63;;;;;;;-145.69;100.00;52559.25;5114954;28;20292;-82
2023/03/06 06:24:29;;;;;;;23.90;8.83;;;;;;;-145.69;100.00;52614.72;5115562;28;20201;-80
2023/03/06 06:26:57;;;;;;;23.37;8.87;;;;;;;-145.69;100.00;52551.31;5115190;28;20197;-81
2023/03/06 06:29:24;;;;;;;27.70;9.53;;;;;;;-145.69;100.00;52571.13;5114381;28;20201;-82
2023/03/06 06:31:52;;;;;;;25.03;10.20;;;;;;;-145.69;100.00;52571.13;5115866;28;20197;-82
2023/03/06 06:34:20;;;;;;;25.53;9.60;;;;;;;-145.69;100.00;52592.91;5115546;28;20706;-81
2023/03/06 06:36:46;;;;;;;27.07;9.90;;;;;;;-145.69;100.00;52588.97;5116372;28;20556;-82
2023/03/06 06:39:15;;;;;;;29.43;11.30;;;;;;;-145.69;100.00;52557.28;5114766;28;21000;-81
2023/03/06 06:41:43;;;;;;;23.97;9.37;;;;;;;-145.69;100.00;52610.75;5114380;28;20591;-81
2023/03/06 06:44:13;;;;;;;24.37;9.70;;;;;;;-145.69;100.00;52602.81;5114586;28;20201;-81
2023/03/06 06:46:42;;;;;;;23.37;9.40;;;;;;;-145.69;100.00;52590.94;5114434;28;20197;-81
2023/03/06 06:49:09;;;;;;;25.07;9.70;;;;;;;-145.69;100.00;52586.97;5114721;28;20207;-81
2023/03/06 06:51:36;;;;;;;24.43;9.00;;;;;;;-145.69;100.00;52586.97;5115011;28;20694;-81
2023/03/06 06:54:02;;;;;;;28.97;10.00;;;;;;;-145.69;100.00;52537.47;5114963;28;20190;-81
2023/03/06 06:56:29;;;;;;;26.50;9.50;;;;;;;-145.69;100.00;52585.00;5115434;28;20201;-81
2023/03/06 06:59:00;;;;;;;25.67;10.70;;;;;;;-145.69;100.00;52579.06;5114400;28;20719;-81
2023/03/06 07:01:26;;;;;;;25.30;9.77;;;;;;;-145.69;100.00;52563.22;5115594;28;20683;-81
2023/03/06 07:03:53;;;;;;;21.97;9.23;;;;;;;-145.69;100.00;52614.72;5114931;28;20667;-80
2023/03/06 07:06:19;;;;;;;25.57;10.43;;;;;;;-145.69;100.00;52598.84;5114538;28;20567;-81
2023/03/06 07:08:46;;;;;;;24.87;10.00;;;;;;;-145.69;100.00;52577.06;5114652;28;20196;-81
2023/03/06 07:11:16;;;;;;;23.00;9.97;;;;;;;-145.69;100.00;52563.22;5115070;28;20217;-81
2023/03/06 07:13:42;;;;;;;29.97;10.07;;;;;;;-145.69;100.00;52577.06;5114926;28;20197;-81
2023/03/06 07:16:11;;;;;;;27.57;10.83;;;;;;;-145.69;100.00;52590.94;5114498;28;20229;-81
2023/03/06 07:18:37;;;;;;;27.90;10.97;;;;;;;-145.69;100.00;52592.91;5114279;28;20652;-80
2023/03/06 07:21:04;;;;;;;35.60;11.23;;;;;;;-145.69;100.00;52573.13;5131507;27;20235;-82
2023/03/06 07:23:31;;;;;;;30.50;10.00;;;;;;;-145.69;100.00;52579.06;5116459;28;20280;-82
2023/03/06 07:25:58;;;;;;;24.40;10.27;;;;;;;-145.69;100.00;52581.03;5116297;28;20197;-81
2023/03/06 07:28:24;;;;;;;26.07;10.40;;;;;;;-145.69;100.00;52583.00;5115739;28;20611;-81
2023/03/06 07:30:51;;;;;;;32.47;11.70;;;;;;;-145.69;100.00;52590.94;5115823;28;20200;-82
2023/03/06 07:33:19;;;;;;;29.53;11.13;;;;;;;-145.69;100.00;52626.59;5116050;28;20190;-82
2023/03/06 07:35:45;;;;;;;28.60;11.50;;;;;;;-145.69;100.00;52586.97;5116909;28;20224;-83
2023/03/06 07:38:13;;;;;;;25.90;11.83;;;;;;;-145.69;100.00;52583.00;5116353;28;20580;-81
2023/03/06 07:40:39;;;;;;;32.07;12.43;;;;;;;-145.69;100.00;52602.81;5115342;28;20209;-82
2023/03/06 07:43:07;;;;;;;97.30;29.13;;;;;;;-145.69;100.00;52551.31;5115589;28;20280;-82
2023/03/06 07:45:33;;;;;;;62.90;27.80;;;;;;;-145.69;100.00;52547.38;5116054;28;20627;-82
2023/03/06 07:48:00;;;;;;;25.97;12.03;;;;;;;-145.69;100.00;52557.28;5116143;28;20207;-82
2023/03/06 07:50:28;;;;;;;27.23;10.73;;;;;;;-145.69;100.00;52590.94;5116542;28;20201;-82
2023/03/06 07:52:54;;;;;;;28.20;11.57;;;;;;;-145.69;100.00;52598.84;5113886;28;20276;-80
2023/03/06 07:55:21;;;;;;;31.17;11.73;;;;;;;-145.69;100.00;52592.91;5112814;28;20702;-82
2023/03/06 07:57:50;;;;;;;28.07;11.90;;;;;;;-145.69;100.00;52610.75;5114254;28;20201;-79
2023/03/06 08:00:17;;;;;;;32.47;12.77;;;;;;;-145.69;100.00;52614.72;5115235;28;20190;-81
2023/03/06 08:02:43;;;;;;;29.27;12.13;;;;;;;-145.69;100.00;52616.69;5115046;28;20208;-82
2023/03/06 08:05:13;;;;;;;27.30;11.97;;;;;;;-145.69;100.00;52592.91;5104467;28;20206;-83
2023/03/06 08:07:41;;;;;;;29.83;12.57;;;;;;;-145.69;100.00;52541.44;5104343;28;20185;-82
2023/03/06 08:10:08;;;;;;;25.80;10.60;;;;;;;-145.69;100.00;52585.00;5115286;28;20202;-83
2023/03/06 08:12:35;;;;;;;27.90;10.77;;;;;;;-145.69;100.00;52604.81;5115818;28;20555;-81
2023/03/06 08:15:02;;;;;;;27.93;10.80;;;;;;;-145.69;100.00;52585.00;5113648;28;20683;-82
2023/03/06 08:17:28;;;;;;;30.80;11.47;;;;;;;-145.69;100.00;52571.13;5114346;28;20676;-83
2023/03/06 08:19:55;;;;;;;30.93;12.17;;;;;;;-145.69;100.00;52579.06;5114292;28;20648;-83
2023/03/06 08:22:22;;;;;;;33.13;11.93;;;;;;;-145.69;100.00;52559.25;5114493;28;20200;-83
2023/03/06 08:24:54;;;;;;;30.77;11.80;;;;;;;-145.69;100.00;52618.66;5115433;28;20212;-82
2023/03/06 08:27:21;;;;;;;26.13;11.60;;;;;;;-145.69;100.00;52563.22;5114337;28;20559;-82
2023/03/06 08:29:47;;;;;;;25.20;11.20;;;;;;;-145.69;100.00;52586.97;5114590;28;20190;-83
2023/03/06 08:32:14;;;;;;;29.30;11.30;;;;;;;-145.69;100.00;52575.09;5113265;28;20194;-83
2023/03/06 08:34:41;;;;;;;27.37;11.27;;;;;;;-145.69;100.00;52610.75;5113214;28;20194;-83
2023/03/06 08:37:08;;;;;;;24.50;11.03;;;;;;;-145.69;100.00;52592.91;5112415;28;20200;-83
2023/03/06 08:39:34;;;;;;;26.00;10.53;;;;;;;-145.69;100.00;52606.78;5113675;28;20280;-83
2023/03/06 08:42:06;;;;;;;25.90;11.27;;;;;;;-145.69;100.00;52563.22;5112952;28;20233;-83
2023/03/06 08:44:36;;;;;;;32.00;11.60;;;;;;;-145.69;100.00;52586.97;5113374;28;20233;-83
2023/03/06 08:47:03;;;;;;;24.70;10.40;;;;;;;-145.69;100.00;52579.06;5112884;28;20200;-83
2023/03/06 08:49:34;;;;;;;24.73;10.67;;;;;;;-145.69;100.00;52618.66;5112757;28;20186;-83
2023/03/06 08:52:01;;;;;;;30.17;10.67;;;;;;;-145.69;100.00;52565.19;5113449;28;20640;-83
2023/03/06 08:54:27;;;;;;;26.07;10.27;;;;;;;-145.69;100.00;52575.09;5115006;28;20202;-83
2023/03/06 08:56:54;;;;;;;26.67;10.20;;;;;;;-145.69;100.00;52585.00;5114573;28;20225;-83
2023/03/06 08:59:23;;;;;;;27.60;9.83;;;;;;;-145.69;100.00;52573.13;5114609;28;20189;-82
2023/03/06 09:01:52;;;;;;;25.23;10.50;;;;;;;-145.69;100.00;52614.72;5114842;28;20284;-83
2023/03/06 09:04:19;;;;;;;26.80;10.23;;;;;;;-145.69;100.00;52588.97;5114702;28;20213;-82
2023/03/06 09:06:45;;;;;;;23.07;8.67;;;;;;;-145.69;100.00;52567.16;5114484;28;20232;-83
2023/03/06 09:09:13;;;;;;;24.20;9.53;;;;;;;-145.69;100.00;52583.00;5095797;28;20194;-83
2023/03/06 09:11:39;;;;;;;22.63;9.70;;;;;;;-145.69;100.00;52583.00;5096157;28;20672;-82
2023/03/06 09:14:06;;;;;;;24.13;9.30;;;;;;;-145.69;100.00;52557.28;5096085;28;20686;-82
2023/03/06 09:16:34;;;;;;;25.93;9.87;;;;;;;-145.69;100.00;52598.84;5110970;28;20691;-82
2023/03/06 09:19:01;;;;;;;24.87;9.40;;;;;;;-145.69;100.00;52571.13;5116376;28;20220;-82
2023/03/06 09:21:29;;;;;;;24.20;10.00;;;;;;;-145.69;100.00;52557.28;5116728;28;20555;-83
2023/03/06 09:23:58;;;;;;;24.90;9.30;;;;;;;-145.69;100.00;52565.19;5116669;28;20205;-83
2023/03/06 09:26:24;;;;;;;23.50;10.30;;;;;;;-145.69;100.00;52565.19;5116434;28;20197;-83
2023/03/06 09:28:51;;;;;;;24.47;10.67;;;;;;;-145.69;100.00;52559.25;5115957;28;20287;-83
2023/03/06 09:31:22;;;;;;;27.27;10.03;;;;;;;-145.69;100.00;52571.13;5116198;28;20201;-83
2023/03/06 09:33:49;;;;;;;23.73;9.63;;;;;;;-145.69;100.00;52583.00;5116013;28;20192;-83
2023/03/06 09:36:19;;;;;;;25.77;10.07;;;;;;;-145.69;100.00;52618.66;5116125;28;20226;-83
2023/03/06 09:38:47;;;;;;;22.47;9.20;;;;;;;-145.69;100.00;52563.22;5116233;28;20198;-83
2023/03/06 09:41:25;;;;;;;35.10;10.60;;;;;;;-145.69;100.00;52579.06;5115695;28;20266;-83
2023/03/06 09:43:55;;;;;;;25.70;10.83;;;;;;;-145.69;100.00;52583.00;5115833;28;20537;-83
2023/03/06 09:46:28;;;;;;;28.40;11.30;;;;;;;-145.69;100.00;52592.91;5116290;28;20190;-83
2023/03/06 09:49:09;;;;;;;22.97;10.93;;;;;;;-145.69;100.00;52575.09;5115750;28;20204;-83
2023/03/06 09:51:49;;;;;;;30.03;11.13;;;;;;;-145.69;100.00;52606.78;5116236;28;20202;-83
2023/03/06 09:54:16;;;;;;;30.77;12.07;;;;;;;-145.69;100.00;52608.75;5115694;28;20197;-83
2023/03/06 09:56:47;;;;;;;30.20;12.53;;;;;;;-145.69;100.00;52567.16;5115783;28;20229;-83
2023/03/06 09:59:20;;;;;;;33.43;11.00;;;;;;;-145.69;100.00;52551.31;5115292;28;20190;-83
2023/03/06 10:01:57;;;;;;;26.53;10.53;;;;;;;-145.69;100.00;52553.31;5115514;28;20205;-83
2023/03/06 10:04:34;;;;;;;26.87;10.50;;;;;;;-145.69;100.00;52588.97;5114762;28;20201;-84
2023/03/06 10:07:07;;;;;;;30.77;10.07;;;;;;;-145.69;100.00;52571.13;5112185;28;20201;-84
2023/03/06 10:09:40;;;;;;;23.97;10.47;;;;;;;-145.69;100.00;52586.97;5097687;28;20659;-82
2023/03/06 10:12:22;;;;;;;21.43;9.60;;;;;;;-145.69;100.00;52555.28;5115326;28;20223;-83
2023/03/06 10:14:58;;;;;;;27.07;11.07;;;;;;;-145.69;100.00;52575.09;5115314;28;20655;-83
2023/03/06 10:17:33;;;;;;;24.30;10.17;;;;;;;-145.69;100.00;52569.16;5114935;28;20205;-83
2023/03/06 10:20:02;;;;;;;22.93;10.53;;;;;;;-145.69;100.00;52561.22;5115554;28;20201;-83
2023/03/06 10:22:34;;;;;;;24.63;10.33;;;;;;;-145.69;100.00;52541.44;5115147;28;20189;-83
2023/03/06 10:25:09;;;;;;;21.27;9.13;;;;;;;-145.69;100.00;52563.22;5115795;28;20205;-83
2023/03/06 10:27:45;;;;;;;22.83;9.30;;;;;;;-145.69;100.00;52590.94;5114730;28;20201;-83
2023/03/06 10:30:23;;;;;;;20.77;8.97;;;;;;;-145.69;100.00;52575.09;5114731;28;20197;-84
2023/03/06 10:32:57;;;;;;;20.40;8.97;;;;;;;-145.69;100.00;52569.16;5115481;28;20291;-84
2023/03/06 10:35:31;;;;;;;21.03;9.00;;;;;;;-145.69;100.00;52581.03;5115799;28;20247;-83
2023/03/06 10:38:11;;;;;;;18.17;7.63;;;;;;;-145.69;100.00;52551.31;5115791;28;20242;-86
2023/03/06 10:40:45;;;;;;;19.77;8.57;;;;;;;-145.69;100.00;52545.38;5115950;28;20208;-83
2023/03/06 10:43:12;;;;;;;21.40;8.30;;;;;;;-145.69;100.00;52567.16;5116882;28;20674;-83
2023/03/06 10:45:48;;;;;;;17.87;7.93;;;;;;;-145.69;100.00;52559.25;5116681;28;20197;-83
2023/03/06 10:48:19;;;;;;;16.73;8.07;;;;;;;-145.69;100.00;52563.22;5116239;28;20199;-83
2023/03/06 10:50:47;;;;;;;16.10;7.63;;;;;;;-145.69;100.00;52551.31;5098555;28;20246;-83
2023/03/06 10:53:21;;;;;;;21.07;9.63;;;;;;;-145.69;100.00;52598.84;5117781;28;20208;-82
2023/03/06 10:55:52;;;;;;;22.83;8.67;;;;;;;-145.69;100.00;52547.38;5117392;28;20308;-83
2023/03/06 10:58:23;;;;;;;17.97;8.30;;;;;;;-145.69;100.00;52563.22;5118152;28;20205;-83
2023/03/06 11:01:03;;;;;;;23.47;8.17;;;;;;;-145.69;100.00;52543.41;5116703;28;20243;-82
2023/03/06 11:03:30;;;;;;;21.60;8.93;;;;;;;-145.69;100.00;52559.25;5117681;28;20197;-83